Grande Italia — IBTF — position and weather

sailwx.info

Track history (hours):
 
Tides and Currents Weather Stations Pressure Air Temp Water Temp Dewpoint Dewpoint Depression Visibility Wind Speed Wind Dir Waves Ship Positions

Grande Italia

Last reported at 2017-May-24 04:00 UTC. Time now 2017-May-24 04:16 UTC.
Position N 34°39' E 033°03'.

Length 177 m; draft 7.2 m.

Type: Ship. MMSI: 247039300.

Date/timePositionNaut miles runAvg speedWind from/ knotsBaromVisibWave heightAir tempDewpointWater temp
2017-May-24 04:00N 34°39' E 033°03'18515.9
2017-May-23 16:24N 31°52' E 034°38'1 0.0
2017-May-22 23:39N 31°51' E 034°38'1 4.7
2017-May-22 23:27N 31°52' E 034°37'2 5.7
2017-May-22 23:01N 31°51' E 034°34'1 1.6
2017-May-22 22:31N 31°52' E 034°33'1 1.6
2017-May-22 21:58N 31°52' E 034°34'2 5.1
2017-May-22 21:31N 31°51' E 034°37'510.2
2017-May-22 20:59N 31°52' E 034°30'816.9
2017-May-22 20:31N 32°00' E 034°31'917.7
2017-May-22 20:00N 32°09' E 034°34'917.8
2017-May-22 19:30N 32°17' E 034°37'917.8
2017-May-22 19:01N 32°26' E 034°40'917.9
2017-May-22 18:30N 32°34' E 034°43'917.8
2017-May-22 18:00N 32°43' E 034°46'917.4
2017-May-22 17:31N 32°51' E 034°49'714.3
2017-May-22 17:01N 32°53' E 034°57'5 9.1
2017-May-22 16:31N 32°49' E 035°00'0 0.5
2017-May-22 16:01N 32°49' E 035°00'0 0.0
2017-May-22 15:31N 32°49' E 035°00'0 0.0
2017-May-22 14:58N 32°49' E 035°00'0 0.0
2017-May-22 13:58N 32°49' E 035°00'0 0.0
2017-May-22 13:28N 32°49' E 035°00'0 0.0
2017-May-22 13:00N 32°49' E 035°00'0 0.0
2017-May-22 12:28N 32°49' E 035°00'0 0.0
2017-May-22 12:00N 32°49' E 035°00'0 0.0
2017-May-22 11:29N 32°49' E 035°00'0 0.0
2017-May-22 10:59N 32°49' E 035°00'0 0.0
2017-May-22 10:29N 32°49' E 035°00'0 0.0
2017-May-22 09:59N 32°49' E 035°00'0 0.0
2017-May-22 09:29N 32°49' E 035°00'0 0.0
2017-May-22 08:59N 32°49' E 035°00'0 0.0
2017-May-22 08:23N 32°49' E 035°00'0 0.0
2017-May-22 07:59N 32°49' E 035°00'0 0.0
2017-May-22 07:29N 32°49' E 035°00'0 0.0
2017-May-22 06:59N 32°49' E 035°00'0 0.0
2017-May-22 06:29N 32°49' E 035°00'0 0.0
2017-May-22 05:59N 32°49' E 035°00'0 0.0
2017-May-22 05:29N 32°49' E 035°00'0 0.0
2017-May-22 04:59N 32°49' E 035°00'0 0.0
2017-May-22 04:29N 32°49' E 035°00'0 0.0
2017-May-22 03:59N 32°49' E 035°00'0 0.0
2017-May-22 03:29N 32°49' E 035°00'0 0.0
2017-May-22 02:59N 32°49' E 035°00'0 0.0
2017-May-22 02:29N 32°49' E 035°00'0 0.0
2017-May-22 01:59N 32°49' E 035°00'0 0.0
2017-May-22 01:29N 32°49' E 035°00'0 0.0
2017-May-22 00:59N 32°49' E 035°00'0 0.0
2017-May-22 00:29N 32°49' E 035°00'0 0.0
2017-May-21 23:59N 32°49' E 035°00'0 0.0
2017-May-21 23:29N 32°49' E 035°00'0 0.0
2017-May-21 22:59N 32°49' E 035°00'0 0.0
2017-May-21 22:29N 32°49' E 035°00'0 0.0
2017-May-21 21:59N 32°49' E 035°00'0 0.0
2017-May-21 21:29N 32°49' E 035°00'0 0.0
2017-May-21 20:59N 32°49' E 035°00'0 0.0
2017-May-21 20:29N 32°49' E 035°00'0 0.0
2017-May-21 19:59N 32°49' E 035°00'0 0.0
2017-May-21 19:29N 32°49' E 035°00'0 0.0
2017-May-21 18:59N 32°49' E 035°00'0 0.0
2017-May-21 18:29N 32°49' E 035°00'0 0.0
2017-May-21 17:59N 32°49' E 035°00'0 0.0
2017-May-21 17:29N 32°49' E 035°00'0 0.0
2017-May-21 16:59N 32°49' E 035°00'0 0.0
2017-May-21 16:29N 32°49' E 035°00'0 0.0
2017-May-21 15:59N 32°49' E 035°00'0 0.0
2017-May-21 15:29N 32°49' E 035°00'0 0.0
2017-May-21 15:00N 32°49' E 035°00'1 1.9
2017-May-21 14:30N 32°50' E 035°01'3 3.5
2017-May-21 13:30N 32°52' E 034°59'5 9.3
2017-May-21 13:00N 32°54' E 034°53'510.7
2017-May-21 12:30N 32°55' E 034°47'613.0
2017-May-21 12:00N 32°57' E 034°40'  
2017-May-18 05:35N 41°20' E 017°11'117.7
2017-May-18 05:30N 41°21' E 017°10'21017.8
2017-May-17 17:40N 44°01' E 014°05'417.8
2017-May-17 17:28N 44°04' E 014°02'1017.8
2017-May-17 16:55N 44°13' E 013°55'717.6
2017-May-17 16:29N 44°19' E 013°50'917.7
2017-May-17 16:00N 44°26' E 013°43'917.8
2017-May-17 15:30N 44°34' E 013°36'917.9
2017-May-17 15:00N 44°41' E 013°29'917.8
2017-May-17 14:30N 44°49' E 013°23'1817.5
2017-May-17 13:30N 45°03' E 013°08'917.3
2017-May-17 13:00N 45°11' E 013°03'917.6
2017-May-17 12:30N 45°19' E 013°01'816.8
2017-May-17 12:00N 45°27' E 013°07'917.5
2017-May-17 11:30N 45°32' E 013°16'816.9
2017-May-17 11:00N 45°36' E 013°27'815.1
2017-May-17 10:30N 45°36' E 013°38'510.1
2017-May-17 10:00N 45°33' E 013°44'0 0.6
2017-May-17 09:24N 45°33' E 013°44'0 0.0
2017-May-17 09:00N 45°33' E 013°44'0 0.0
2017-May-17 08:30N 45°33' E 013°44'0 0.0
2017-May-17 07:54N 45°33' E 013°44'0 0.0
2017-May-17 07:30N 45°33' E 013°44'0 0.0
2017-May-17 06:48N 45°33' E 013°44'0 0.0
2017-May-17 06:24N 45°33' E 013°44'0 0.0
2017-May-17 06:00N 45°33' E 013°44'0 0.0
2017-May-17 05:24N 45°33' E 013°44'0 0.0
2017-May-17 04:57N 45°33' E 013°44'0 0.0
2017-May-17 04:30N 45°33' E 013°44'0 0.0
2017-May-17 04:00N 45°33' E 013°44'0 0.0
2017-May-17 03:30N 45°33' E 013°44'0 0.0
2017-May-17 03:00N 45°33' E 013°44'0 0.0
2017-May-17 02:30N 45°33' E 013°44'0 0.0
2017-May-17 02:00N 45°33' E 013°44'0 0.0
2017-May-17 01:30N 45°33' E 013°44'0 0.0
2017-May-17 00:57N 45°33' E 013°44'0 0.0
2017-May-17 00:27N 45°33' E 013°44'0 0.0
2017-May-16 23:48N 45°33' E 013°44'0 0.0
2017-May-16 23:30N 45°33' E 013°44'0 0.0
2017-May-16 23:00N 45°33' E 013°44'0 0.0
2017-May-16 22:27N 45°33' E 013°44'0 0.0
2017-May-16 22:00N 45°33' E 013°44'0 0.0
2017-May-16 21:27N 45°33' E 013°44'0 0.0
2017-May-16 20:51N 45°33' E 013°44'0 0.0
2017-May-16 20:30N 45°33' E 013°44'0 0.0
2017-May-16 20:00N 45°33' E 013°44'0 0.0
2017-May-16 19:27N 45°33' E 013°44'0 0.0
2017-May-16 19:00N 45°33' E 013°44'0 0.0
2017-May-16 18:30N 45°33' E 013°44'0 0.0
2017-May-16 18:00N 45°33' E 013°44'0 0.0
2017-May-16 17:24N 45°33' E 013°44'0 0.0
2017-May-16 17:00N 45°33' E 013°44'0 0.0
2017-May-16 16:30N 45°33' E 013°44'0 0.0
2017-May-16 15:54N 45°33' E 013°44'0 0.0
2017-May-16 15:30N 45°33' E 013°44'0 0.0
2017-May-16 15:00N 45°33' E 013°44'0 0.0
2017-May-16 14:00N 45°33' E 013°44'0 0.0
2017-May-16 13:30N 45°33' E 013°44'0 0.0
2017-May-16 12:57N 45°33' E 013°44'0 0.0
2017-May-16 12:27N 45°33' E 013°44'0 0.0
2017-May-16 12:00N 45°33' E 013°44'0 0.0
2017-May-16 11:30N 45°33' E 013°44'0 0.0
2017-May-16 10:57N 45°33' E 013°44'0 0.0
2017-May-16 10:30N 45°33' E 013°44'0 0.0
2017-May-16 09:54N 45°33' E 013°44'0 0.0
2017-May-16 09:30N 45°33' E 013°44'0 0.0
2017-May-16 08:57N 45°33' E 013°44'0 0.0
2017-May-16 08:30N 45°33' E 013°44'0 0.0
2017-May-16 08:00N 45°33' E 013°44'0 0.0
2017-May-16 07:30N 45°33' E 013°44'0 0.0
2017-May-16 07:00N 45°33' E 013°44'0 0.0
2017-May-16 06:27N 45°33' E 013°44'0 0.0
2017-May-16 05:57N 45°33' E 013°44'0 0.0
2017-May-16 05:30N 45°33' E 013°44'0 0.0
2017-May-16 05:00N 45°33' E 013°44'0 0.0
2017-May-16 04:30N 45°33' E 013°44'0 0.0
2017-May-16 04:00N 45°33' E 013°44'0 0.0
2017-May-16 03:27N 45°33' E 013°44'0 0.0
2017-May-16 02:57N 45°33' E 013°44'0 0.0
2017-May-16 02:30N 45°33' E 013°44'0 0.0
2017-May-16 02:00N 45°33' E 013°44'0 0.0
2017-May-16 01:30N 45°33' E 013°44'0 0.0
2017-May-16 01:00N 45°33' E 013°44'0 0.0
2017-May-16 00:30N 45°33' E 013°44'0 0.0
2017-May-15 23:57N 45°33' E 013°44'0 0.0
2017-May-15 23:30N 45°33' E 013°44'0 0.0
2017-May-15 22:57N 45°33' E 013°44'0 0.0
2017-May-15 22:30N 45°33' E 013°44'0 0.0
2017-May-15 21:57N 45°33' E 013°44'0 0.0
2017-May-15 21:30N 45°33' E 013°44'0 0.0
2017-May-15 20:57N 45°33' E 013°44'0 0.0
2017-May-15 20:30N 45°33' E 013°44'0 0.0
2017-May-15 20:00N 45°33' E 013°44'0 0.4
2017-May-15 19:30N 45°33' E 013°44'2 3.7
2017-May-15 19:00N 45°34' E 013°41'0 0.4
2017-May-15 18:30N 45°34' E 013°41'0 0.1
2017-May-15 18:00N 45°34' E 013°41'0 0.0
2017-May-15 17:30N 45°34' E 013°41'0 0.0
2017-May-15 16:57N 45°34' E 013°41'0 0.0
2017-May-15 16:27N 45°34' E 013°41'0 0.0
2017-May-15 16:00N 45°34' E 013°41'0 0.0
2017-May-15 15:30N 45°34' E 013°41'0 0.1
2017-May-15 14:57N 45°34' E 013°41'0 0.1
2017-May-15 14:27N 45°34' E 013°41'0 0.0
2017-May-15 13:30N 45°34' E 013°41'0 0.3
2017-May-15 13:00N 45°34' E 013°41'2 4.8
2017-May-15 12:30N 45°34' E 013°38'713.6
2017-May-15 12:00N 45°34' E 013°29'714.0
2017-May-15 11:30N 45°30' E 013°20'714.1
2017-May-15 11:00N 45°26' E 013°12'713.8
2017-May-15 10:31N 45°19' E 013°13'714.7
2017-May-15 10:00N 45°12' E 013°14'713.4
2017-May-15 09:31N 45°06' E 013°10'714.2
2017-May-15 09:01N 45°01' E 013°03'714.0
2017-May-15 08:30N 44°56' E 012°56'714.2
2017-May-15 08:00N 44°50' E 012°50'714.4
2017-May-15 07:30N 44°45' E 012°42'714.5
2017-May-15 07:00N 44°40' E 012°35'814.7
2017-May-15 06:28N 44°34' E 012°27'612.8
2017-May-15 06:00N 44°30' E 012°22'4 7.6
2017-May-15 05:29N 44°29' E 012°16'3 0.3
2017-May-14 21:53N 44°27' E 012°15'0 0.0
2017-May-14 20:38N 44°27' E 012°15'0 0.0
2017-May-14 20:23N 44°27' E 012°15'0 0.0
2017-May-14 19:47N 44°27' E 012°15'0 0.0
2017-May-14 19:29N 44°27' E 012°15'0 0.0
2017-May-14 18:50N 44°27' E 012°15'0 0.0
2017-May-14 18:29N 44°27' E 012°15'1 0.1
2017-May-14 09:06N 44°28' E 012°15'2 6.8
2017-May-14 08:52N 44°30' E 012°17'3 7.7
2017-May-14 08:29N 44°30' E 012°21'2 3.5
2017-May-14 07:52N 44°30' E 012°24'1 3.0
2017-May-14 07:29N 44°31' E 012°24'510.4
2017-May-14 07:00N 44°35' E 012°29'816.4
2017-May-14 06:30N 44°41' E 012°36'917.6
2017-May-14 06:00N 44°48' E 012°45'917.6
2017-May-14 05:30N 44°54' E 012°53'917.2
2017-May-14 05:00N 45°01' E 013°00'816.7
2017-May-14 04:30N 45°09' E 013°03'917.5
2017-May-14 04:00N 45°18' E 013°01'  
Track history (hours):
 
Tides and Currents Weather Stations Pressure Air Temp Water Temp Dewpoint Dewpoint Depression Visibility Wind Speed Wind Dir Waves Ship Positions

Grande Italia

Last reported at 2017-May-24 04:00 UTC. Time now 2017-May-24 04:16 UTC.
Position N 34°39' E 033°03'.

Length 177 m; draft 7.2 m.

Type: Ship. MMSI: 247039300.

Date/timePositionNaut miles runAvg speedWind from/ knotsBaromVisibWave heightAir tempDewpointWater temp
2017-May-24 04:00N 34°39' E 033°03'18515.9
2017-May-23 16:24N 31°52' E 034°38'1 0.0
2017-May-22 23:39N 31°51' E 034°38'1 4.7
2017-May-22 23:27N 31°52' E 034°37'2 5.7
2017-May-22 23:01N 31°51' E 034°34'1 1.6
2017-May-22 22:31N 31°52' E 034°33'1 1.6
2017-May-22 21:58N 31°52' E 034°34'2 5.1
2017-May-22 21:31N 31°51' E 034°37'510.2
2017-May-22 20:59N 31°52' E 034°30'816.9
2017-May-22 20:31N 32°00' E 034°31'917.7
2017-May-22 20:00N 32°09' E 034°34'917.8
2017-May-22 19:30N 32°17' E 034°37'917.8
2017-May-22 19:01N 32°26' E 034°40'917.9
2017-May-22 18:30N 32°34' E 034°43'917.8
2017-May-22 18:00N 32°43' E 034°46'917.4
2017-May-22 17:31N 32°51' E 034°49'714.3
2017-May-22 17:01N 32°53' E 034°57'5 9.1
2017-May-22 16:31N 32°49' E 035°00'0 0.5
2017-May-22 16:01N 32°49' E 035°00'0 0.0
2017-May-22 15:31N 32°49' E 035°00'0 0.0
2017-May-22 14:58N 32°49' E 035°00'0 0.0
2017-May-22 13:58N 32°49' E 035°00'0 0.0
2017-May-22 13:28N 32°49' E 035°00'0 0.0
2017-May-22 13:00N 32°49' E 035°00'0 0.0
2017-May-22 12:28N 32°49' E 035°00'0 0.0
2017-May-22 12:00N 32°49' E 035°00'0 0.0
2017-May-22 11:29N 32°49' E 035°00'0 0.0
2017-May-22 10:59N 32°49' E 035°00'0 0.0
2017-May-22 10:29N 32°49' E 035°00'0 0.0
2017-May-22 09:59N 32°49' E 035°00'0 0.0
2017-May-22 09:29N 32°49' E 035°00'0 0.0
2017-May-22 08:59N 32°49' E 035°00'0 0.0
2017-May-22 08:23N 32°49' E 035°00'0 0.0
2017-May-22 07:59N 32°49' E 035°00'0 0.0
2017-May-22 07:29N 32°49' E 035°00'0 0.0
2017-May-22 06:59N 32°49' E 035°00'0 0.0
2017-May-22 06:29N 32°49' E 035°00'0 0.0
2017-May-22 05:59N 32°49' E 035°00'0 0.0
2017-May-22 05:29N 32°49' E 035°00'0 0.0
2017-May-22 04:59N 32°49' E 035°00'0 0.0
2017-May-22 04:29N 32°49' E 035°00'0 0.0
2017-May-22 03:59N 32°49' E 035°00'0 0.0
2017-May-22 03:29N 32°49' E 035°00'0 0.0
2017-May-22 02:59N 32°49' E 035°00'0 0.0
2017-May-22 02:29N 32°49' E 035°00'0 0.0
2017-May-22 01:59N 32°49' E 035°00'0 0.0
2017-May-22 01:29N 32°49' E 035°00'0 0.0
2017-May-22 00:59N 32°49' E 035°00'0 0.0
2017-May-22 00:29N 32°49' E 035°00'0 0.0
2017-May-21 23:59N 32°49' E 035°00'0 0.0
2017-May-21 23:29N 32°49' E 035°00'0 0.0
2017-May-21 22:59N 32°49' E 035°00'0 0.0
2017-May-21 22:29N 32°49' E 035°00'0 0.0
2017-May-21 21:59N 32°49' E 035°00'0 0.0
2017-May-21 21:29N 32°49' E 035°00'0 0.0
2017-May-21 20:59N 32°49' E 035°00'0 0.0
2017-May-21 20:29N 32°49' E 035°00'0 0.0
2017-May-21 19:59N 32°49' E 035°00'0 0.0
2017-May-21 19:29N 32°49' E 035°00'0 0.0
2017-May-21 18:59N 32°49' E 035°00'0 0.0
2017-May-21 18:29N 32°49' E 035°00'0 0.0
2017-May-21 17:59N 32°49' E 035°00'0 0.0
2017-May-21 17:29N 32°49' E 035°00'0 0.0
2017-May-21 16:59N 32°49' E 035°00'0 0.0
2017-May-21 16:29N 32°49' E 035°00'0 0.0
2017-May-21 15:59N 32°49' E 035°00'0 0.0
2017-May-21 15:29N 32°49' E 035°00'0 0.0
2017-May-21 15:00N 32°49' E 035°00'1 1.9
2017-May-21 14:30N 32°50' E 035°01'3 3.5
2017-May-21 13:30N 32°52' E 034°59'5 9.3
2017-May-21 13:00N 32°54' E 034°53'510.7
2017-May-21 12:30N 32°55' E 034°47'613.0
2017-May-21 12:00N 32°57' E 034°40'  
2017-May-18 05:35N 41°20' E 017°11'117.7
2017-May-18 05:30N 41°21' E 017°10'21017.8
2017-May-17 17:40N 44°01' E 014°05'417.8
2017-May-17 17:28N 44°04' E 014°02'1017.8
2017-May-17 16:55N 44°13' E 013°55'717.6
2017-May-17 16:29N 44°19' E 013°50'917.7
2017-May-17 16:00N 44°26' E 013°43'917.8
2017-May-17 15:30N 44°34' E 013°36'917.9
2017-May-17 15:00N 44°41' E 013°29'917.8
2017-May-17 14:30N 44°49' E 013°23'1817.5
2017-May-17 13:30N 45°03' E 013°08'917.3
2017-May-17 13:00N 45°11' E 013°03'917.6
2017-May-17 12:30N 45°19' E 013°01'816.8
2017-May-17 12:00N 45°27' E 013°07'917.5
2017-May-17 11:30N 45°32' E 013°16'816.9
2017-May-17 11:00N 45°36' E 013°27'815.1
2017-May-17 10:30N 45°36' E 013°38'510.1
2017-May-17 10:00N 45°33' E 013°44'0 0.6
2017-May-17 09:24N 45°33' E 013°44'0 0.0
2017-May-17 09:00N 45°33' E 013°44'0 0.0
2017-May-17 08:30N 45°33' E 013°44'0 0.0
2017-May-17 07:54N 45°33' E 013°44'0 0.0
2017-May-17 07:30N 45°33' E 013°44'0 0.0
2017-May-17 06:48N 45°33' E 013°44'0 0.0
2017-May-17 06:24N 45°33' E 013°44'0 0.0
2017-May-17 06:00N 45°33' E 013°44'0 0.0
2017-May-17 05:24N 45°33' E 013°44'0 0.0
2017-May-17 04:57N 45°33' E 013°44'0 0.0
2017-May-17 04:30N 45°33' E 013°44'0 0.0
2017-May-17 04:00N 45°33' E 013°44'0 0.0
2017-May-17 03:30N 45°33' E 013°44'0 0.0
2017-May-17 03:00N 45°33' E 013°44'0 0.0
2017-May-17 02:30N 45°33' E 013°44'0 0.0
2017-May-17 02:00N 45°33' E 013°44'0 0.0
2017-May-17 01:30N 45°33' E 013°44'0 0.0
2017-May-17 00:57N 45°33' E 013°44'0 0.0
2017-May-17 00:27N 45°33' E 013°44'0 0.0
2017-May-16 23:48N 45°33' E 013°44'0 0.0
2017-May-16 23:30N 45°33' E 013°44'0 0.0
2017-May-16 23:00N 45°33' E 013°44'0 0.0
2017-May-16 22:27N 45°33' E 013°44'0 0.0
2017-May-16 22:00N 45°33' E 013°44'0 0.0
2017-May-16 21:27N 45°33' E 013°44'0 0.0
2017-May-16 20:51N 45°33' E 013°44'0 0.0
2017-May-16 20:30N 45°33' E 013°44'0 0.0
2017-May-16 20:00N 45°33' E 013°44'0 0.0
2017-May-16 19:27N 45°33' E 013°44'0 0.0
2017-May-16 19:00N 45°33' E 013°44'0 0.0
2017-May-16 18:30N 45°33' E 013°44'0 0.0
2017-May-16 18:00N 45°33' E 013°44'0 0.0
2017-May-16 17:24N 45°33' E 013°44'0 0.0
2017-May-16 17:00N 45°33' E 013°44'0 0.0
2017-May-16 16:30N 45°33' E 013°44'0 0.0
2017-May-16 15:54N 45°33' E 013°44'0 0.0
2017-May-16 15:30N 45°33' E 013°44'0 0.0
2017-May-16 15:00N 45°33' E 013°44'0 0.0
2017-May-16 14:00N 45°33' E 013°44'0 0.0
2017-May-16 13:30N 45°33' E 013°44'0 0.0
2017-May-16 12:57N 45°33' E 013°44'0 0.0
2017-May-16 12:27N 45°33' E 013°44'0 0.0
2017-May-16 12:00N 45°33' E 013°44'0 0.0
2017-May-16 11:30N 45°33' E 013°44'0 0.0
2017-May-16 10:57N 45°33' E 013°44'0 0.0
2017-May-16 10:30N 45°33' E 013°44'0 0.0
2017-May-16 09:54N 45°33' E 013°44'0 0.0
2017-May-16 09:30N 45°33' E 013°44'0 0.0
2017-May-16 08:57N 45°33' E 013°44'0 0.0
2017-May-16 08:30N 45°33' E 013°44'0 0.0
2017-May-16 08:00N 45°33' E 013°44'0 0.0
2017-May-16 07:30N 45°33' E 013°44'0 0.0
2017-May-16 07:00N 45°33' E 013°44'0 0.0
2017-May-16 06:27N 45°33' E 013°44'0 0.0
2017-May-16 05:57N 45°33' E 013°44'0 0.0
2017-May-16 05:30N 45°33' E 013°44'0 0.0
2017-May-16 05:00N 45°33' E 013°44'0 0.0
2017-May-16 04:30N 45°33' E 013°44'0 0.0
2017-May-16 04:00N 45°33' E 013°44'0 0.0
2017-May-16 03:27N 45°33' E 013°44'0 0.0
2017-May-16 02:57N 45°33' E 013°44'0 0.0
2017-May-16 02:30N 45°33' E 013°44'0 0.0
2017-May-16 02:00N 45°33' E 013°44'0 0.0
2017-May-16 01:30N 45°33' E 013°44'0 0.0
2017-May-16 01:00N 45°33' E 013°44'0 0.0
2017-May-16 00:30N 45°33' E 013°44'0 0.0
2017-May-15 23:57N 45°33' E 013°44'0 0.0
2017-May-15 23:30N 45°33' E 013°44'0 0.0
2017-May-15 22:57N 45°33' E 013°44'0 0.0
2017-May-15 22:30N 45°33' E 013°44'0 0.0
2017-May-15 21:57N 45°33' E 013°44'0 0.0
2017-May-15 21:30N 45°33' E 013°44'0 0.0
2017-May-15 20:57N 45°33' E 013°44'0 0.0
2017-May-15 20:30N 45°33' E 013°44'0 0.0
2017-May-15 20:00N 45°33' E 013°44'0 0.4
2017-May-15 19:30N 45°33' E 013°44'2 3.7
2017-May-15 19:00N 45°34' E 013°41'0 0.4
2017-May-15 18:30N 45°34' E 013°41'0 0.1
2017-May-15 18:00N 45°34' E 013°41'0 0.0
2017-May-15 17:30N 45°34' E 013°41'0 0.0
2017-May-15 16:57N 45°34' E 013°41'0 0.0
2017-May-15 16:27N 45°34' E 013°41'0 0.0
2017-May-15 16:00N 45°34' E 013°41'0 0.0
2017-May-15 15:30N 45°34' E 013°41'0 0.1
2017-May-15 14:57N 45°34' E 013°41'0 0.1
2017-May-15 14:27N 45°34' E 013°41'0 0.0
2017-May-15 13:30N 45°34' E 013°41'0 0.3
2017-May-15 13:00N 45°34' E 013°41'2 4.8
2017-May-15 12:30N 45°34' E 013°38'713.6
2017-May-15 12:00N 45°34' E 013°29'714.0
2017-May-15 11:30N 45°30' E 013°20'714.1
2017-May-15 11:00N 45°26' E 013°12'713.8
2017-May-15 10:31N 45°19' E 013°13'714.7
2017-May-15 10:00N 45°12' E 013°14'713.4
2017-May-15 09:31N 45°06' E 013°10'714.2
2017-May-15 09:01N 45°01' E 013°03'714.0
2017-May-15 08:30N 44°56' E 012°56'714.2
2017-May-15 08:00N 44°50' E 012°50'714.4
2017-May-15 07:30N 44°45' E 012°42'714.5
2017-May-15 07:00N 44°40' E 012°35'814.7
2017-May-15 06:28N 44°34' E 012°27'612.8
2017-May-15 06:00N 44°30' E 012°22'4 7.6
2017-May-15 05:29N 44°29' E 012°16'3 0.3
2017-May-14 21:53N 44°27' E 012°15'0 0.0
2017-May-14 20:38N 44°27' E 012°15'0 0.0
2017-May-14 20:23N 44°27' E 012°15'0 0.0
2017-May-14 19:47N 44°27' E 012°15'0 0.0
2017-May-14 19:29N 44°27' E 012°15'0 0.0
2017-May-14 18:50N 44°27' E 012°15'0 0.0
2017-May-14 18:29N 44°27' E 012°15'1 0.1
2017-May-14 09:06N 44°28' E 012°15'2 6.8
2017-May-14 08:52N 44°30' E 012°17'3 7.7
2017-May-14 08:29N 44°30' E 012°21'2 3.5
2017-May-14 07:52N 44°30' E 012°24'1 3.0
2017-May-14 07:29N 44°31' E 012°24'510.4
2017-May-14 07:00N 44°35' E 012°29'816.4
2017-May-14 06:30N 44°41' E 012°36'917.6
2017-May-14 06:00N 44°48' E 012°45'917.6
2017-May-14 05:30N 44°54' E 012°53'917.2
2017-May-14 05:00N 45°01' E 013°00'816.7
2017-May-14 04:30N 45°09' E 013°03'917.5
2017-May-14 04:00N 45°18' E 013°01'  

Dump ship's entire track history